createdAt,value
2022-11-30T00:00:55.097Z,-3.50
2022-11-30T00:03:28.382Z,-3.40
2022-11-30T00:06:07.224Z,-3.40
2022-11-30T00:08:40.624Z,-3.40
2022-11-30T00:11:16.158Z,-3.40
2022-11-30T00:13:50.004Z,-3.40
2022-11-30T00:16:23.548Z,-3.40
2022-11-30T00:18:57.201Z,-3.40
2022-11-30T00:21:32.959Z,-3.40
2022-11-30T00:24:07.363Z,-3.40
2022-11-30T00:26:40.934Z,-3.40
2022-11-30T00:29:14.479Z,-3.40
2022-11-30T00:31:47.884Z,-3.40
2022-11-30T00:34:21.205Z,-3.40
2022-11-30T00:36:56.151Z,-3.40
2022-11-30T00:39:35.343Z,-3.40
2022-11-30T00:42:09.176Z,-3.40
2022-11-30T00:44:42.845Z,-3.40
2022-11-30T00:47:16.279Z,-3.40
2022-11-30T00:49:49.768Z,-3.40
2022-11-30T00:52:24.449Z,-3.40
2022-11-30T00:54:58.313Z,-3.40
2022-11-30T00:57:31.884Z,-3.50
2022-11-30T01:00:05.925Z,-3.50
2022-11-30T01:02:39.605Z,-3.50
2022-11-30T01:05:13.067Z,-3.50
2022-11-30T01:07:48.921Z,-3.50
2022-11-30T01:10:23.105Z,-3.50
2022-11-30T01:12:56.533Z,-3.50
2022-11-30T01:15:30.644Z,-3.50
2022-11-30T01:18:03.947Z,-3.50
2022-11-30T01:20:41.650Z,-3.60
2022-11-30T01:23:16.331Z,-3.60
2022-11-30T01:25:55.521Z,-3.60
2022-11-30T01:28:29.178Z,-3.50
2022-11-30T01:31:04.235Z,-3.60
2022-11-30T01:33:37.910Z,-3.60
2022-11-30T01:36:14.385Z,-3.60
2022-11-30T01:38:50.753Z,-3.60
2022-11-30T01:41:26.110Z,-3.60
2022-11-30T01:44:26.758Z,-3.60
2022-11-30T01:47:01.803Z,-3.60
2022-11-30T01:49:39.496Z,-3.60
2022-11-30T01:52:16.286Z,-3.60
2022-11-30T01:54:55.385Z,-3.60
2022-11-30T01:57:35.038Z,-3.60
2022-11-30T02:00:11.700Z,-3.60
2022-11-30T02:02:56.261Z,-3.60
2022-11-30T02:05:30.125Z,-3.60
2022-11-30T02:08:03.904Z,-3.50
2022-11-30T02:10:42.253Z,-3.50
2022-11-30T02:13:34.748Z,-3.60
2022-11-30T02:16:17.922Z,-3.60
2022-11-30T02:18:59.436Z,-3.60
2022-11-30T02:21:40.238Z,-3.60
2022-11-30T02:24:34.359Z,-3.60
2022-11-30T02:27:30.691Z,-3.60
2022-11-30T02:30:10.446Z,-3.60
2022-11-30T02:32:49.441Z,-3.60
2022-11-30T02:35:26.960Z,-3.60
2022-11-30T02:38:03.694Z,-3.50
2022-11-30T02:40:36.959Z,-3.50
2022-11-30T02:43:10.434Z,-3.50
2022-11-30T02:45:51.701Z,-3.50
2022-11-30T02:48:33.659Z,-3.50
2022-11-30T02:51:09.882Z,-3.50
2022-11-30T02:53:43.517Z,-3.40
2022-11-30T02:56:18.771Z,-3.40
2022-11-30T02:58:52.617Z,-3.40
2022-11-30T03:01:27.845Z,-3.40
2022-11-30T03:04:01.202Z,-3.40
2022-11-30T03:06:34.632Z,-3.30
2022-11-30T03:09:08.316Z,-3.30
2022-11-30T03:11:41.976Z,-3.30
2022-11-30T03:14:15.243Z,-3.30
2022-11-30T03:16:50.051Z,-3.30
2022-11-30T03:19:23.292Z,-3.30
2022-11-30T03:21:56.967Z,-3.30
2022-11-30T03:24:30.555Z,-3.30
2022-11-30T03:27:03.866Z,-3.20
2022-11-30T03:29:37.294Z,-3.20
2022-11-30T03:32:11.905Z,-3.20
2022-11-30T03:34:45.958Z,-3.20
2022-11-30T03:37:19.741Z,-3.10
2022-11-30T03:39:57.956Z,-3.10
2022-11-30T03:42:31.684Z,-3.10
2022-11-30T03:45:05.573Z,-3.20
2022-11-30T03:47:40.214Z,-3.20
2022-11-30T03:50:13.630Z,-3.10
2022-11-30T03:52:46.981Z,-3.20
2022-11-30T03:55:20.449Z,-3.10
2022-11-30T03:57:53.908Z,-3.10
2022-11-30T04:00:27.486Z,-3.10
2022-11-30T04:03:02.179Z,-3.00
2022-11-30T04:05:36.045Z,-3.00
2022-11-30T04:08:09.281Z,-3.00
2022-11-30T04:10:42.900Z,-2.90
2022-11-30T04:13:16.478Z,-2.90
2022-11-30T04:15:51.221Z,-2.90
2022-11-30T04:18:27.521Z,-2.80
2022-11-30T04:21:02.242Z,-2.80
2022-11-30T04:23:37.555Z,-2.80
2022-11-30T04:26:14.082Z,-2.80
2022-11-30T04:28:47.511Z,-2.90
2022-11-30T04:31:20.864Z,-2.90
2022-11-30T04:33:56.056Z,-2.90
2022-11-30T04:36:29.308Z,-2.80
2022-11-30T04:39:02.609Z,-2.80
2022-11-30T04:41:35.874Z,-2.90
2022-11-30T04:44:09.645Z,-2.80
2022-11-30T04:46:43.004Z,-2.70
2022-11-30T04:49:18.094Z,-2.80
2022-11-30T04:51:51.367Z,-2.70
2022-11-30T04:54:25.078Z,-2.70
2022-11-30T04:56:58.358Z,-2.70
2022-11-30T04:59:31.960Z,-2.70
2022-11-30T05:02:05.597Z,-2.70
2022-11-30T05:04:40.518Z,-2.70
2022-11-30T05:07:14.128Z,-2.70
2022-11-30T05:09:47.725Z,-2.70
2022-11-30T05:12:21.171Z,-2.80
2022-11-30T05:14:54.602Z,-2.80
2022-11-30T05:17:27.933Z,-2.80
2022-11-30T05:20:02.918Z,-2.80
2022-11-30T05:22:36.491Z,-2.80
2022-11-30T05:25:10.430Z,-2.80
2022-11-30T05:27:43.692Z,-2.80
2022-11-30T05:30:17.332Z,-2.80
2022-11-30T05:32:50.589Z,-2.80
2022-11-30T05:35:25.305Z,-2.70
2022-11-30T05:37:58.575Z,-2.70
2022-11-30T05:40:32.748Z,-2.70
2022-11-30T05:43:06.804Z,-2.70
2022-11-30T05:45:40.580Z,-2.70
2022-11-30T05:48:13.829Z,-2.70
2022-11-30T05:50:48.620Z,-2.70
2022-11-30T05:53:21.960Z,-2.70
2022-11-30T05:55:55.228Z,-2.70
2022-11-30T05:58:28.659Z,-2.70
2022-11-30T06:01:01.942Z,-2.70
2022-11-30T06:03:37.000Z,-2.60
2022-11-30T06:06:11.734Z,-2.60
2022-11-30T06:08:45.814Z,-2.60
2022-11-30T06:11:19.656Z,-2.60
2022-11-30T06:13:52.982Z,-2.50
2022-11-30T06:16:26.309Z,-2.50
2022-11-30T06:18:59.630Z,-2.50
2022-11-30T06:21:34.321Z,-2.50
2022-11-30T06:24:08.420Z,-2.50
2022-11-30T06:26:41.698Z,-2.50
2022-11-30T06:29:15.127Z,-2.40
2022-11-30T06:31:48.413Z,-2.40
2022-11-30T06:34:21.963Z,-2.30
2022-11-30T06:36:58.689Z,-2.40
2022-11-30T06:40:04.253Z,-2.40
2022-11-30T06:42:25.514Z,-2.40
2022-11-30T06:44:59.036Z,-2.40
2022-11-30T06:47:32.537Z,-2.30
2022-11-30T06:50:08.431Z,-2.30
2022-11-30T06:52:43.194Z,-2.30
2022-11-30T06:55:16.596Z,-2.30
2022-11-30T06:57:49.858Z,-2.20
2022-11-30T07:00:23.790Z,-2.20
2022-11-30T07:02:57.067Z,-2.20
2022-11-30T07:05:30.482Z,-2.20
2022-11-30T07:08:05.499Z,-2.20
2022-11-30T07:10:41.766Z,-2.20
2022-11-30T07:13:16.133Z,-2.20
2022-11-30T07:15:49.727Z,-2.10
2022-11-30T07:18:28.499Z,-2.10
2022-11-30T07:21:06.474Z,-2.00
2022-11-30T07:23:58.436Z,-2.00
2022-11-30T07:26:31.761Z,-1.90
2022-11-30T07:29:05.434Z,-1.90
2022-11-30T07:31:39.212Z,-1.90
2022-11-30T07:34:13.426Z,-1.90
2022-11-30T07:36:47.121Z,-1.90
2022-11-30T07:39:21.955Z,-1.80
2022-11-30T07:41:56.388Z,-1.80
2022-11-30T07:44:32.933Z,-1.70
2022-11-30T07:47:06.247Z,-1.70
2022-11-30T07:49:40.301Z,-1.70
2022-11-30T07:52:13.641Z,-1.70
2022-11-30T07:54:48.592Z,-1.70
2022-11-30T07:57:22.059Z,-1.70
2022-11-30T07:59:55.706Z,-1.60
2022-11-30T08:02:29.000Z,-1.60
2022-11-30T08:05:02.377Z,-1.60
2022-11-30T08:07:35.711Z,-1.50
2022-11-30T08:10:11.816Z,-1.50
2022-11-30T08:12:45.206Z,-1.40
2022-11-30T08:15:20.406Z,-1.40
2022-11-30T08:17:55.175Z,-1.30
2022-11-30T08:20:28.466Z,-1.20
2022-11-30T08:23:01.789Z,-1.10
2022-11-30T08:25:37.192Z,-1.10
2022-11-30T08:28:10.468Z,-1.10
2022-11-30T08:30:43.838Z,-1.00
2022-11-30T08:33:17.198Z,-0.90
2022-11-30T08:35:50.507Z,-0.80
2022-11-30T08:38:26.387Z,-0.80
2022-11-30T08:41:01.165Z,-0.70
2022-11-30T08:43:34.893Z,-0.70
2022-11-30T08:46:34.838Z,-0.70
2022-11-30T08:54:51.500Z,-0.50
2022-11-30T08:57:26.830Z,-0.50
2022-11-30T09:00:00.135Z,-0.40
2022-11-30T09:02:34.018Z,-0.40
2022-11-30T09:05:07.897Z,-0.40
2022-11-30T09:07:41.325Z,-0.40
2022-11-30T09:10:14.706Z,-0.30
2022-11-30T09:12:49.335Z,-0.30
2022-11-30T09:15:23.490Z,-0.20
2022-11-30T09:17:56.845Z,-0.30
2022-11-30T09:20:30.331Z,-0.40
2022-11-30T09:23:03.599Z,-0.40
2022-11-30T09:25:36.933Z,-0.40
2022-11-30T09:28:12.558Z,-0.40
2022-11-30T09:30:45.972Z,-0.40
2022-11-30T09:33:19.944Z,-0.30
2022-11-30T09:35:57.831Z,-0.20
2022-11-30T09:38:31.393Z,-0.20
2022-11-30T09:41:08.486Z,-0.20
2022-11-30T09:43:52.411Z,-0.10
2022-11-30T09:46:29.535Z,-0.10
2022-11-30T09:49:06.992Z,0.00
2022-11-30T09:51:46.773Z,0.00
2022-11-30T09:54:23.897Z,0.00
2022-11-30T09:56:57.277Z,0.10
2022-11-30T09:59:34.690Z,0.20
2022-11-30T10:02:17.084Z,0.30
2022-11-30T10:04:50.742Z,0.40
2022-11-30T10:07:44.354Z,0.50
2022-11-30T10:10:32.684Z,0.50
2022-11-30T10:13:27.363Z,0.60
2022-11-30T10:16:13.101Z,0.60
2022-11-30T10:18:56.501Z,0.70
2022-11-30T10:21:43.052Z,0.70
2022-11-30T10:24:30.680Z,0.80
2022-11-30T10:27:17.067Z,0.80
2022-11-30T10:29:52.008Z,0.90
2022-11-30T10:32:34.437Z,1.00
2022-11-30T10:35:20.847Z,1.00
2022-11-30T10:37:55.081Z,1.10
2022-11-30T10:40:35.649Z,1.10
2022-11-30T10:43:18.066Z,1.20
2022-11-30T10:45:52.877Z,1.30
2022-11-30T10:48:35.408Z,1.40
2022-11-30T10:51:11.767Z,1.40
2022-11-30T10:53:45.078Z,1.50
2022-11-30T10:56:18.381Z,1.60
2022-11-30T10:58:58.043Z,1.60
2022-11-30T11:01:34.293Z,1.70
2022-11-30T11:04:14.981Z,1.70
2022-11-30T11:06:52.621Z,1.70
2022-11-30T11:09:34.807Z,1.70
2022-11-30T11:12:16.107Z,1.70
2022-11-30T11:14:49.448Z,1.60
2022-11-30T11:17:26.232Z,1.60
2022-11-30T11:20:00.929Z,1.70
2022-11-30T11:22:35.603Z,1.70
2022-11-30T11:25:12.809Z,1.80
2022-11-30T11:27:52.973Z,1.80
2022-11-30T11:30:31.533Z,1.90
2022-11-30T11:33:19.084Z,1.90
2022-11-30T11:35:56.421Z,2.00
2022-11-30T11:38:32.113Z,1.90
2022-11-30T11:41:08.031Z,2.00
2022-11-30T11:43:59.190Z,2.00
2022-11-30T11:46:34.633Z,1.90
2022-11-30T11:49:19.385Z,1.90
2022-11-30T11:52:03.753Z,1.90
2022-11-30T11:54:42.595Z,1.90
2022-11-30T11:57:18.323Z,1.90
2022-11-30T11:59:56.137Z,1.90
2022-11-30T12:02:38.156Z,1.80
2022-11-30T12:05:15.654Z,1.90
2022-11-30T12:08:03.815Z,1.80
2022-11-30T12:10:57.416Z,1.90
2022-11-30T12:13:34.395Z,1.90
2022-11-30T12:16:21.283Z,1.90
2022-11-30T12:19:01.351Z,1.90
2022-11-30T12:21:47.655Z,1.90
2022-11-30T12:24:48.403Z,1.90
2022-11-30T12:27:31.331Z,1.90
2022-11-30T12:30:12.766Z,1.90
2022-11-30T12:33:07.795Z,1.80
2022-11-30T12:36:00.238Z,1.80
2022-11-30T12:38:43.165Z,1.70
2022-11-30T12:41:32.502Z,1.70
2022-11-30T12:44:28.782Z,1.80
2022-11-30T12:47:16.969Z,1.80
2022-11-30T12:50:04.079Z,1.70
2022-11-30T12:52:46.794Z,1.70
2022-11-30T12:55:30.131Z,1.60
2022-11-30T12:58:12.601Z,1.70
2022-11-30T13:01:00.766Z,1.70
2022-11-30T13:03:43.567Z,1.70
2022-11-30T13:06:20.947Z,1.70
2022-11-30T13:08:59.968Z,1.70
2022-11-30T13:11:38.597Z,1.60
2022-11-30T13:14:17.457Z,1.60
2022-11-30T13:16:53.456Z,1.50
2022-11-30T13:19:51.843Z,1.50
2022-11-30T13:22:32.895Z,1.40
2022-11-30T13:25:34.062Z,1.40
2022-11-30T13:28:20.139Z,1.40
2022-11-30T13:30:59.717Z,1.40
2022-11-30T13:33:48.212Z,1.40
2022-11-30T13:36:32.622Z,1.40
2022-11-30T13:39:22.770Z,1.30
2022-11-30T13:42:38.751Z,1.20
2022-11-30T13:45:32.162Z,1.20
2022-11-30T13:48:31.319Z,1.10
2022-11-30T13:51:05.208Z,1.10
2022-11-30T13:53:39.689Z,1.10
2022-11-30T13:56:35.378Z,1.00
2022-11-30T13:59:36.288Z,1.00
2022-11-30T14:02:59.162Z,0.90
2022-11-30T14:05:41.886Z,1.00
2022-11-30T14:08:39.791Z,0.90
2022-11-30T14:11:43.678Z,0.80
2022-11-30T14:14:47.025Z,0.80
2022-11-30T14:17:26.982Z,0.80
2022-11-30T14:20:03.725Z,0.70
2022-11-30T14:22:41.483Z,0.60
2022-11-30T14:25:17.705Z,0.60
2022-11-30T14:27:56.744Z,0.50
2022-11-30T14:30:34.536Z,0.50
2022-11-30T14:33:19.355Z,0.40
2022-11-30T14:35:57.856Z,0.40
2022-11-30T14:38:32.819Z,0.30
2022-11-30T14:41:20.770Z,0.30
2022-11-30T14:44:02.128Z,0.30
2022-11-30T14:46:36.323Z,0.20
2022-11-30T14:49:17.550Z,0.20
2022-11-30T14:51:53.033Z,0.10
2022-11-30T14:54:41.988Z,0.10
2022-11-30T14:57:24.153Z,0.10
2022-11-30T14:59:58.159Z,0.10
2022-11-30T15:02:37.258Z,0.00
2022-11-30T15:05:16.837Z,0.00
2022-11-30T15:07:51.455Z,-0.10
2022-11-30T15:10:30.833Z,0.00
2022-11-30T15:13:04.663Z,-0.10
2022-11-30T15:15:41.718Z,-0.10
2022-11-30T15:18:17.316Z,-0.20
2022-11-30T15:20:55.840Z,-0.20
2022-11-30T15:23:29.529Z,-0.20
2022-11-30T15:26:10.333Z,-0.20
2022-11-30T15:28:48.955Z,-0.30
2022-11-30T15:31:22.539Z,-0.30
2022-11-30T15:33:55.879Z,-0.40
2022-11-30T15:36:35.258Z,-0.40
2022-11-30T15:39:15.910Z,-0.40
2022-11-30T15:41:54.922Z,-0.40
2022-11-30T15:44:40.334Z,-0.40
2022-11-30T15:47:26.274Z,-0.40
2022-11-30T15:49:59.851Z,-0.40
2022-11-30T15:52:35.207Z,-0.50
2022-11-30T15:55:42.610Z,-0.50
2022-11-30T15:58:34.217Z,-0.50
2022-11-30T16:01:11.773Z,-0.50
2022-11-30T16:04:06.310Z,-0.50
2022-11-30T16:06:47.539Z,-0.50
2022-11-30T16:09:23.101Z,-0.50
2022-11-30T16:11:57.796Z,-0.50
2022-11-30T16:14:32.477Z,-0.50
2022-11-30T16:17:09.169Z,-0.50
2022-11-30T16:19:42.651Z,-0.60
2022-11-30T16:22:17.367Z,-0.60
2022-11-30T16:24:50.714Z,-0.60
2022-11-30T16:27:24.082Z,-0.60
2022-11-30T16:29:58.890Z,-0.60
2022-11-30T16:32:32.338Z,-0.60
2022-11-30T16:35:19.572Z,-0.60
2022-11-30T16:37:53.551Z,-0.50
2022-11-30T16:40:26.922Z,-0.50
2022-11-30T16:43:00.320Z,-0.60
2022-11-30T16:45:37.395Z,-0.50
2022-11-30T16:48:11.184Z,-0.50
2022-11-30T16:50:45.001Z,-0.50
2022-11-30T16:53:18.708Z,-0.50
2022-11-30T16:55:51.960Z,-0.50
2022-11-30T16:58:25.280Z,-0.50
2022-11-30T17:01:00.358Z,-0.50
2022-11-30T17:03:36.254Z,-0.50
2022-11-30T17:06:15.003Z,-0.50
2022-11-30T17:08:49.371Z,-0.50
2022-11-30T17:11:28.998Z,-0.50
2022-11-30T17:14:02.640Z,-0.50
2022-11-30T17:16:37.412Z,-0.50
2022-11-30T17:19:11.217Z,-0.50
2022-11-30T17:21:44.925Z,-0.50
2022-11-30T17:24:18.561Z,-0.50
2022-11-30T17:26:51.996Z,-0.50
2022-11-30T17:29:25.294Z,-0.40
2022-11-30T17:32:00.011Z,-0.50
2022-11-30T17:34:33.343Z,-0.50
2022-11-30T17:37:06.599Z,-0.50
2022-11-30T17:39:39.910Z,-0.50
2022-11-30T17:42:13.221Z,-0.50
2022-11-30T17:44:47.145Z,-0.60
2022-11-30T17:47:22.579Z,-0.60
2022-11-30T17:49:56.734Z,-0.60
2022-11-30T17:52:29.977Z,-0.60
2022-11-30T17:55:03.338Z,-0.50
2022-11-30T17:57:38.840Z,-0.50
2022-11-30T18:00:13.124Z,-0.60
2022-11-30T18:02:51.248Z,-0.60
2022-11-30T18:05:24.761Z,-0.60
2022-11-30T18:07:58.142Z,-0.60
2022-11-30T18:10:31.488Z,-0.60
2022-11-30T18:13:04.868Z,-0.60
2022-11-30T18:15:38.345Z,-0.60
2022-11-30T18:18:13.130Z,-0.60
2022-11-30T18:20:46.413Z,-0.60
2022-11-30T18:23:19.723Z,-0.60
2022-11-30T18:25:53.057Z,-0.60
2022-11-30T18:28:26.397Z,-0.70
2022-11-30T18:30:59.913Z,-0.70
2022-11-30T18:33:35.007Z,-0.70
2022-11-30T18:36:08.450Z,-0.70
2022-11-30T18:38:42.469Z,-0.70
2022-11-30T18:41:15.787Z,-0.70
2022-11-30T18:43:49.058Z,-0.70
2022-11-30T18:46:22.728Z,-0.70
2022-11-30T18:48:59.113Z,-0.70
2022-11-30T18:51:32.482Z,-0.70
2022-11-30T18:54:08.689Z,-0.70
2022-11-30T18:56:42.185Z,-0.70
2022-11-30T18:59:16.122Z,-0.70
2022-11-30T19:01:51.009Z,-0.60
2022-11-30T19:04:29.674Z,-0.70
2022-11-30T19:07:03.859Z,-0.60
2022-11-30T19:09:37.263Z,-0.60
2022-11-30T19:12:10.532Z,-0.60
2022-11-30T19:14:45.373Z,-0.60
2022-11-30T19:17:19.053Z,-0.60
2022-11-30T19:19:53.728Z,-0.60
2022-11-30T19:22:30.159Z,-0.60
2022-11-30T19:25:03.413Z,-0.60
2022-11-30T19:27:36.939Z,-0.60
2022-11-30T19:30:11.568Z,-0.60
2022-11-30T19:32:44.865Z,-0.60
2022-11-30T19:35:19.611Z,-0.60
2022-11-30T19:37:53.063Z,-0.60
2022-11-30T19:40:26.388Z,-0.60
2022-11-30T19:43:00.246Z,-0.60
2022-11-30T19:45:35.542Z,-0.60
2022-11-30T19:48:08.934Z,-0.70
2022-11-30T19:50:43.652Z,-0.70
2022-11-30T19:53:16.991Z,-0.60
2022-11-30T19:55:50.353Z,-0.60
2022-11-30T19:58:23.793Z,-0.60
2022-11-30T20:00:57.353Z,-0.60
2022-11-30T20:03:35.450Z,-0.60
2022-11-30T20:06:10.271Z,-0.50
2022-11-30T20:08:43.614Z,-0.50
2022-11-30T20:11:17.308Z,-0.50
2022-11-30T20:13:51.464Z,-0.50
2022-11-30T20:16:25.092Z,-0.50
2022-11-30T20:19:01.266Z,-0.50
2022-11-30T20:21:37.063Z,-0.40
2022-11-30T20:24:12.777Z,-0.40
2022-11-30T20:26:46.745Z,-0.40
2022-11-30T20:29:20.061Z,-0.40
2022-11-30T20:31:53.367Z,-0.40
2022-11-30T20:34:32.675Z,-0.40
2022-11-30T20:37:08.841Z,-0.30
2022-11-30T20:39:45.776Z,-0.30
2022-11-30T20:42:19.596Z,-0.30
2022-11-30T20:44:52.926Z,-0.20
2022-11-30T20:47:26.211Z,-0.20
2022-11-30T20:49:59.849Z,-0.20
2022-11-30T20:52:35.258Z,-0.20
2022-11-30T20:55:09.078Z,-0.20
2022-11-30T20:57:42.392Z,-0.30
2022-11-30T21:00:17.587Z,-0.20
2022-11-30T21:02:51.076Z,-0.30
2022-11-30T21:05:24.411Z,-0.30
2022-11-30T21:07:59.104Z,-0.30
2022-11-30T21:10:32.570Z,-0.30
2022-11-30T21:13:05.889Z,-0.30
2022-11-30T21:15:39.228Z,-0.30
2022-11-30T21:18:12.564Z,-0.30
2022-11-30T21:20:45.802Z,-0.30
2022-11-30T21:23:24.863Z,-0.30
2022-11-30T21:26:03.290Z,-0.30
2022-11-30T21:28:38.401Z,-0.30
2022-11-30T21:31:11.884Z,-0.30
2022-11-30T21:33:52.434Z,-0.20
2022-11-30T21:36:26.682Z,-0.20
2022-11-30T21:39:06.793Z,-0.20
2022-11-30T21:41:41.181Z,-0.20
2022-11-30T21:44:16.398Z,-0.20
2022-11-30T21:46:50.448Z,-0.20
2022-11-30T21:49:23.773Z,-0.20
2022-11-30T21:51:57.308Z,-0.20
2022-11-30T21:54:32.143Z,-0.20
2022-11-30T21:57:05.512Z,-0.20
2022-11-30T21:59:38.805Z,-0.20
2022-11-30T22:02:13.104Z,-0.20
2022-11-30T22:04:47.187Z,-0.20
2022-11-30T22:07:31.834Z,-0.20
2022-11-30T22:10:07.945Z,-0.20
2022-11-30T22:12:41.204Z,-0.20
2022-11-30T22:15:14.760Z,-0.10
2022-11-30T22:17:48.092Z,-0.20
2022-11-30T22:20:21.404Z,-0.20
2022-11-30T22:22:54.708Z,-0.20
2022-11-30T22:25:29.404Z,-0.10
2022-11-30T22:28:02.692Z,-0.20
2022-11-30T22:30:36.025Z,-0.10
2022-11-30T22:33:09.317Z,-0.10
2022-11-30T22:35:42.629Z,-0.10
2022-11-30T22:38:16.461Z,-0.10
2022-11-30T22:40:51.124Z,-0.10
2022-11-30T22:43:24.371Z,-0.10
2022-11-30T22:46:03.651Z,-0.10
2022-11-30T22:48:37.541Z,-0.10
2022-11-30T22:51:13.371Z,-0.10
2022-11-30T22:53:47.469Z,-0.10
2022-11-30T22:56:23.385Z,-0.10
2022-11-30T22:58:59.007Z,-0.10
2022-11-30T23:01:34.613Z,-0.10
2022-11-30T23:04:10.188Z,-0.10
2022-11-30T23:06:44.859Z,-0.20
2022-11-30T23:09:20.803Z,-0.20
2022-11-30T23:11:55.477Z,-0.20
2022-11-30T23:14:28.849Z,-0.20
2022-11-30T23:17:02.191Z,-0.10
2022-11-30T23:19:35.473Z,-0.20
2022-11-30T23:22:08.749Z,-0.20
2022-11-30T23:24:42.066Z,-0.20
2022-11-30T23:27:16.870Z,-0.20
2022-11-30T23:29:50.290Z,-0.20
2022-11-30T23:32:23.995Z,-0.20
2022-11-30T23:34:57.327Z,-0.20
2022-11-30T23:37:30.769Z,-0.20
2022-11-30T23:40:04.455Z,-0.30
2022-11-30T23:42:39.277Z,-0.30
2022-11-30T23:45:13.072Z,-0.20
2022-11-30T23:47:46.329Z,-0.30
2022-11-30T23:50:19.906Z,-0.30
2022-11-30T23:52:53.149Z,-0.30
2022-11-30T23:55:26.600Z,-0.30
2022-11-30T23:58:01.226Z,-0.20
